Andropov — UGKW — position and weather

sailwx.info

Track history (hours):
 
Tides and Currents Weather Stations Pressure Air Temp Water Temp Dewpoint Dewpoint Depression Visibility Wind Speed Wind Dir Waves Ship Positions

Andropov

Last reported at 2018-Jun-21 13:51 UTC. Time now 2018-Jun-22 20:54 UTC.
Position N 45°43' E 036°54'.

Length 125 m; draft 3.2 m.

Type: Tanker. MMSI: 273450240.

Date/timePositionNaut miles runAvg speedWind from/ knotsBaromVisibWave heightAir tempDewpointWater temp
2018-Jun-21 13:51N 45°43' E 036°54'16 7.3
2018-Jun-21 11:42N 45°29' E 036°43'2 7.2
2018-Jun-21 11:26N 45°27' E 036°42'3 7.5
2018-Jun-21 11:00N 45°24' E 036°41'4 7.1
2018-Jun-21 10:30N 45°21' E 036°39'4 7.4
2018-Jun-21 10:00N 45°20' E 036°34'6 6.2
2018-Jun-21 09:06N 45°16' E 036°28'1 4.4
2018-Jun-21 08:48N 45°14' E 036°28'1 2.2
2018-Jun-21 08:21N 45°13' E 036°29'2 2.6
2018-Jun-21 07:41N 45°12' E 036°29'1 4.1
2018-Jun-21 07:30N 45°11' E 036°29'2 3.5
2018-Jun-21 06:54N 45°09' E 036°30'2 5.6
2018-Jun-21 06:30N 45°08' E 036°33'0 0.1
2018-Jun-21 04:10N 45°08' E 036°33'0 0.0
2018-Jun-21 03:46N 45°08' E 036°33'0 0.0
2018-Jun-21 03:25N 45°08' E 036°33'0 0.0
2018-Jun-21 02:58N 45°08' E 036°33'0 0.0
2018-Jun-21 01:43N 45°08' E 036°33'0 0.0
2018-Jun-21 01:25N 45°08' E 036°33'0 0.0
2018-Jun-21 00:55N 45°08' E 036°33'0 0.0
2018-Jun-20 23:49N 45°08' E 036°33'0 0.0
2018-Jun-20 23:25N 45°08' E 036°33'0 0.0
2018-Jun-20 22:16N 45°08' E 036°33'0 0.1
2018-Jun-20 21:58N 45°08' E 036°33'0 0.0
2018-Jun-20 21:25N 45°08' E 036°33'0 0.0
2018-Jun-20 20:58N 45°08' E 036°33'0 0.0
2018-Jun-20 19:40N 45°08' E 036°33'0 0.0
2018-Jun-20 18:13N 45°08' E 036°33'0 0.0
2018-Jun-20 17:58N 45°08' E 036°33'0 0.0
2018-Jun-20 14:28N 45°08' E 036°33'0 0.0
2018-Jun-20 13:58N 45°08' E 036°33'0 0.0
2018-Jun-20 13:28N 45°08' E 036°33'0 0.0
2018-Jun-20 13:00N 45°08' E 036°33'2 3.3
2018-Jun-20 12:29N 45°09' E 036°32'3 5.8
2018-Jun-20 11:56N 45°11' E 036°28'3 6.8
2018-Jun-20 11:28N 45°14' E 036°28'3 6.6
2018-Jun-20 11:00N 45°17' E 036°29'3 5.9
2018-Jun-20 10:30N 45°19' E 036°32'4 7.3
2018-Jun-20 10:00N 45°21' E 036°37'3 6.6
2018-Jun-20 09:30N 45°23' E 036°40'3 6.3
2018-Jun-20 09:00N 45°26' E 036°40'2 4.5
2018-Jun-20 08:30N 45°28' E 036°40'0 0.8
2018-Jun-20 07:59N 45°29' E 036°39'0 0.0
2018-Jun-20 07:29N 45°29' E 036°39'0 0.0
2018-Jun-20 06:56N 45°29' E 036°39'0 0.0
2018-Jun-20 06:26N 45°29' E 036°39'0 0.0
2018-Jun-20 05:59N 45°29' E 036°39'0 0.0
2018-Jun-20 05:29N 45°29' E 036°39'0 0.0
2018-Jun-20 04:59N 45°29' E 036°39'0 0.0
2018-Jun-20 04:29N 45°29' E 036°39'0 0.0
2018-Jun-20 03:59N 45°29' E 036°39'5 1.4
2018-Jun-20 00:02N 45°32' E 036°45'1 6.0
2018-Jun-19 23:56N 45°33' E 036°45'  
Track history (hours):
 
Tides and Currents Weather Stations Pressure Air Temp Water Temp Dewpoint Dewpoint Depression Visibility Wind Speed Wind Dir Waves Ship Positions

Andropov

Last reported at 2018-Jun-21 13:51 UTC. Time now 2018-Jun-22 20:54 UTC.
Position N 45°43' E 036°54'.

Length 125 m; draft 3.2 m.

Type: Tanker. MMSI: 273450240.

Date/timePositionNaut miles runAvg speedWind from/ knotsBaromVisibWave heightAir tempDewpointWater temp
2018-Jun-21 13:51N 45°43' E 036°54'16 7.3
2018-Jun-21 11:42N 45°29' E 036°43'2 7.2
2018-Jun-21 11:26N 45°27' E 036°42'3 7.5
2018-Jun-21 11:00N 45°24' E 036°41'4 7.1
2018-Jun-21 10:30N 45°21' E 036°39'4 7.4
2018-Jun-21 10:00N 45°20' E 036°34'6 6.2
2018-Jun-21 09:06N 45°16' E 036°28'1 4.4
2018-Jun-21 08:48N 45°14' E 036°28'1 2.2
2018-Jun-21 08:21N 45°13' E 036°29'2 2.6
2018-Jun-21 07:41N 45°12' E 036°29'1 4.1
2018-Jun-21 07:30N 45°11' E 036°29'2 3.5
2018-Jun-21 06:54N 45°09' E 036°30'2 5.6
2018-Jun-21 06:30N 45°08' E 036°33'0 0.1
2018-Jun-21 04:10N 45°08' E 036°33'0 0.0
2018-Jun-21 03:46N 45°08' E 036°33'0 0.0
2018-Jun-21 03:25N 45°08' E 036°33'0 0.0
2018-Jun-21 02:58N 45°08' E 036°33'0 0.0
2018-Jun-21 01:43N 45°08' E 036°33'0 0.0
2018-Jun-21 01:25N 45°08' E 036°33'0 0.0
2018-Jun-21 00:55N 45°08' E 036°33'0 0.0
2018-Jun-20 23:49N 45°08' E 036°33'0 0.0
2018-Jun-20 23:25N 45°08' E 036°33'0 0.0
2018-Jun-20 22:16N 45°08' E 036°33'0 0.1
2018-Jun-20 21:58N 45°08' E 036°33'0 0.0
2018-Jun-20 21:25N 45°08' E 036°33'0 0.0
2018-Jun-20 20:58N 45°08' E 036°33'0 0.0
2018-Jun-20 19:40N 45°08' E 036°33'0 0.0
2018-Jun-20 18:13N 45°08' E 036°33'0 0.0
2018-Jun-20 17:58N 45°08' E 036°33'0 0.0
2018-Jun-20 14:28N 45°08' E 036°33'0 0.0
2018-Jun-20 13:58N 45°08' E 036°33'0 0.0
2018-Jun-20 13:28N 45°08' E 036°33'0 0.0
2018-Jun-20 13:00N 45°08' E 036°33'2 3.3
2018-Jun-20 12:29N 45°09' E 036°32'3 5.8
2018-Jun-20 11:56N 45°11' E 036°28'3 6.8
2018-Jun-20 11:28N 45°14' E 036°28'3 6.6
2018-Jun-20 11:00N 45°17' E 036°29'3 5.9
2018-Jun-20 10:30N 45°19' E 036°32'4 7.3
2018-Jun-20 10:00N 45°21' E 036°37'3 6.6
2018-Jun-20 09:30N 45°23' E 036°40'3 6.3
2018-Jun-20 09:00N 45°26' E 036°40'2 4.5
2018-Jun-20 08:30N 45°28' E 036°40'0 0.8
2018-Jun-20 07:59N 45°29' E 036°39'0 0.0
2018-Jun-20 07:29N 45°29' E 036°39'0 0.0
2018-Jun-20 06:56N 45°29' E 036°39'0 0.0
2018-Jun-20 06:26N 45°29' E 036°39'0 0.0
2018-Jun-20 05:59N 45°29' E 036°39'0 0.0
2018-Jun-20 05:29N 45°29' E 036°39'0 0.0
2018-Jun-20 04:59N 45°29' E 036°39'0 0.0
2018-Jun-20 04:29N 45°29' E 036°39'0 0.0
2018-Jun-20 03:59N 45°29' E 036°39'5 1.4
2018-Jun-20 00:02N 45°32' E 036°45'1 6.0
2018-Jun-19 23:56N 45°33' E 036°45'  

Dump ship's entire track history